sensor_id;sensor_type;location;lat;lon;timestamp;pressure;altitude;pressure_sealevel;temperature;humidity
55679;BME280;41573;51.446;-2.018;2023-04-26T00:02:09;100457.16;;;6.06;100.00
55679;BME280;41573;51.446;-2.018;2023-04-26T00:04:36;100445.72;;;6.06;100.00
55679;BME280;41573;51.446;-2.018;2023-04-26T00:07:02;100450.19;;;6.03;100.00
55679;BME280;41573;51.446;-2.018;2023-04-26T00:09:28;100439.63;;;6.03;100.00
55679;BME280;41573;51.446;-2.018;2023-04-26T00:11:54;100441.22;;;6.08;100.00
55679;BME280;41573;51.446;-2.018;2023-04-26T00:14:25;100445.66;;;6.07;100.00
55679;BME280;41573;51.446;-2.018;2023-04-26T00:16:51;100457.22;;;6.04;100.00
55679;BME280;41573;51.446;-2.018;2023-04-26T00:19:22;100466.72;;;6.09;100.00
55679;BME280;41573;51.446;-2.018;2023-04-26T00:21:48;100466.72;;;6.09;100.00
55679;BME280;41573;51.446;-2.018;2023-04-26T00:24:16;100458.81;;;6.09;100.00
55679;BME280;41573;51.446;-2.018;2023-04-26T00:26:42;100463.28;;;6.07;100.00
55679;BME280;41573;51.446;-2.018;2023-04-26T00:29:07;100486.50;;;6.00;100.00
55679;BME280;41573;51.446;-2.018;2023-04-26T00:31:32;100500.75;;;5.96;100.00
55679;BME280;41573;51.446;-2.018;2023-04-26T00:33:58;100500.88;;;5.93;100.00
55679;BME280;41573;51.446;-2.018;2023-04-26T00:36:23;100512.44;;;5.90;100.00
55679;BME280;41573;51.446;-2.018;2023-04-26T00:38:49;100518.75;;;5.86;100.00
55679;BME280;41573;51.446;-2.018;2023-04-26T00:41:14;100526.81;;;5.83;100.00
55679;BME280;41573;51.446;-2.018;2023-04-26T00:43:43;100526.06;;;5.79;100.00
55679;BME280;41573;51.446;-2.018;2023-04-26T00:46:09;100527.88;;;5.79;100.00
55679;BME280;41573;51.446;-2.018;2023-04-26T00:48:38;100527.13;;;5.75;100.00
55679;BME280;41573;51.446;-2.018;2023-04-26T00:51:04;100520.16;;;5.73;100.00
55679;BME280;41573;51.446;-2.018;2023-04-26T00:53:31;100540.41;;;5.74;100.00
55679;BME280;41573;51.446;-2.018;2023-04-26T00:55:58;100544.03;;;5.71;100.00
55679;BME280;41573;51.446;-2.018;2023-04-26T00:58:24;100538.66;;;5.73;100.00
55679;BME280;41573;51.446;-2.018;2023-04-26T01:00:50;100533.59;;;5.68;100.00
55679;BME280;41573;51.446;-2.018;2023-04-26T01:03:24;100537.03;;;5.70;100.00
55679;BME280;41573;51.446;-2.018;2023-04-26T01:05:51;100541.44;;;5.69;100.00
55679;BME280;41573;51.446;-2.018;2023-04-26T01:08:23;100548.53;;;5.69;100.00
55679;BME280;41573;51.446;-2.018;2023-04-26T01:10:49;100557.31;;;5.69;100.00
55679;BME280;41573;51.446;-2.018;2023-04-26T01:13:15;100557.38;;;5.68;100.00
55679;BME280;41573;51.446;-2.018;2023-04-26T01:15:51;100561.81;;;5.67;100.00
55679;BME280;41573;51.446;-2.018;2023-04-26T01:18:17;100562.72;;;5.66;100.00
55679;BME280;41573;51.446;-2.018;2023-04-26T01:20:43;100566.13;;;5.68;100.00
55679;BME280;41573;51.446;-2.018;2023-04-26T01:23:10;100575.13;;;5.64;100.00
55679;BME280;41573;51.446;-2.018;2023-04-26T01:25:36;100574.13;;;5.67;100.00
55679;BME280;41573;51.446;-2.018;2023-04-26T01:28:02;100571.41;;;5.68;100.00
55679;BME280;41573;51.446;-2.018;2023-04-26T01:30:31;100558.13;;;5.72;100.00
55679;BME280;41573;51.446;-2.018;2023-04-26T01:32:59;100543.03;;;5.74;100.00
55679;BME280;41573;51.446;-2.018;2023-04-26T01:38:04;100542.91;;;5.77;100.00
55679;BME280;41573;51.446;-2.018;2023-04-26T01:40:32;100557.91;;;5.76;100.00
55679;BME280;41573;51.446;-2.018;2023-04-26T01:42:58;100552.75;;;5.73;100.00
55679;BME280;41573;51.446;-2.018;2023-04-26T01:45:24;100553.47;;;5.77;100.00
55679;BME280;41573;51.446;-2.018;2023-04-26T01:47:49;100542.06;;;5.76;100.00
55679;BME280;41573;51.446;-2.018;2023-04-26T01:50:18;100547.22;;;5.79;100.00
55679;BME280;41573;51.446;-2.018;2023-04-26T01:52:44;100541.88;;;5.81;100.00
55679;BME280;41573;51.446;-2.018;2023-04-26T01:55:09;100536.50;;;5.82;100.00
55679;BME280;41573;51.446;-2.018;2023-04-26T01:57:34;100531.28;;;5.81;100.00
55679;BME280;41573;51.446;-2.018;2023-04-26T02:00:09;100533.09;;;5.80;100.00
55679;BME280;41573;51.446;-2.018;2023-04-26T02:02:35;100532.22;;;5.80;100.00
55679;BME280;41573;51.446;-2.018;2023-04-26T02:05:01;100524.34;;;5.78;100.00
55679;BME280;41573;51.446;-2.018;2023-04-26T02:07:32;100538.31;;;5.82;100.00
55679;BME280;41573;51.446;-2.018;2023-04-26T02:09:57;100539.22;;;5.81;100.00
55679;BME280;41573;51.446;-2.018;2023-04-26T02:12:28;100552.56;;;5.78;100.00
55679;BME280;41573;51.446;-2.018;2023-04-26T02:15:00;100536.72;;;5.78;100.00
55679;BME280;41573;51.446;-2.018;2023-04-26T02:17:29;100537.63;;;5.77;100.00
55679;BME280;41573;51.446;-2.018;2023-04-26T02:20:03;100527.94;;;5.77;100.00
55679;BME280;41573;51.446;-2.018;2023-04-26T02:23:01;100534.06;;;5.78;100.00
55679;BME280;41573;51.446;-2.018;2023-04-26T02:25:30;100543.66;;;5.80;100.00
55679;BME280;41573;51.446;-2.018;2023-04-26T02:28:05;100534.06;;;5.78;100.00
55679;BME280;41573;51.446;-2.018;2023-04-26T02:30:31;100533.16;;;5.79;100.00
55679;BME280;41573;51.446;-2.018;2023-04-26T02:32:57;100519.94;;;5.79;100.00
55679;BME280;41573;51.446;-2.018;2023-04-26T02:35:23;100481.09;;;5.81;100.00
55679;BME280;41573;51.446;-2.018;2023-04-26T02:37:49;100460.75;;;5.83;100.00
55679;BME280;41573;51.446;-2.018;2023-04-26T02:40:17;100442.03;;;5.87;100.00
55679;BME280;41573;51.446;-2.018;2023-04-26T02:42:43;100420.84;;;5.89;100.00
55679;BME280;41573;51.446;-2.018;2023-04-26T06:40:05;100251.41;;;6.33;100.00
55679;BME280;41573;51.446;-2.018;2023-04-26T06:42:31;100246.84;;;6.37;100.00
55679;BME280;41573;51.446;-2.018;2023-04-26T06:44:57;100256.25;;;6.43;100.00
55679;BME280;41573;51.446;-2.018;2023-04-26T06:47:22;100247.28;;;6.45;100.00
55679;BME280;41573;51.446;-2.018;2023-04-26T06:49:47;100253.47;;;6.46;100.00
55679;BME280;41573;51.446;-2.018;2023-04-26T06:52:13;100240.16;;;6.47;100.00
55679;BME280;41573;51.446;-2.018;2023-04-26T06:54:38;100226.84;;;6.49;100.00
55679;BME280;41573;51.446;-2.018;2023-04-26T06:57:04;100237.84;;;6.59;100.00
55679;BME280;41573;51.446;-2.018;2023-04-26T06:59:29;100217.31;;;6.64;100.00
55679;BME280;41573;51.446;-2.018;2023-04-26T07:01:54;100216.53;;;6.79;100.00
55679;BME280;41573;51.446;-2.018;2023-04-26T07:04:20;100216.75;;;6.92;100.00
55679;BME280;41573;51.446;-2.018;2023-04-26T07:06:46;100212.41;;;7.08;100.00
55679;BME280;41573;51.446;-2.018;2023-04-26T07:09:11;100176.56;;;7.19;100.00
55679;BME280;41573;51.446;-2.018;2023-04-26T07:11:37;100158.13;;;7.33;100.00
55679;BME280;41573;51.446;-2.018;2023-04-26T07:14:05;100128.59;;;7.41;100.00
55679;BME280;41573;51.446;-2.018;2023-04-26T07:16:31;100113.06;;;7.51;100.00
55679;BME280;41573;51.446;-2.018;2023-04-26T07:18:56;100095.78;;;7.59;100.00
55679;BME280;41573;51.446;-2.018;2023-04-26T07:21:25;100075.34;;;7.62;100.00
55679;BME280;41573;51.446;-2.018;2023-04-26T07:23:54;100063.03;;;7.76;100.00
55679;BME280;41573;51.446;-2.018;2023-04-26T07:26:20;100052.66;;;7.88;100.00
55679;BME280;41573;51.446;-2.018;2023-04-26T07:28:45;100013.09;;;7.85;100.00
55679;BME280;41573;51.446;-2.018;2023-04-26T07:31:11;100003.75;;;7.93;100.00
55679;BME280;41573;51.446;-2.018;2023-04-26T07:33:36;100001.50;;;8.02;100.00
55679;BME280;41573;51.446;-2.018;2023-04-26T07:36:02;99973.25;;;8.01;100.00
55679;BME280;41573;51.446;-2.018;2023-04-26T07:38:27;99950.00;;;8.20;100.00
55679;BME280;41573;51.446;-2.018;2023-04-26T07:40:54;99948.78;;;8.26;100.00
55679;BME280;41573;51.446;-2.018;2023-04-26T07:43:19;99941.13;;;8.36;100.00
55679;BME280;41573;51.446;-2.018;2023-04-26T07:45:45;99912.28;;;8.44;100.00
55679;BME280;41573;51.446;-2.018;2023-04-26T07:48:11;99903.03;;;8.51;100.00
55679;BME280;41573;51.446;-2.018;2023-04-26T07:50:37;99890.06;;;8.47;100.00
55679;BME280;41573;51.446;-2.018;2023-04-26T07:53:02;99850.34;;;8.45;100.00
55679;BME280;41573;51.446;-2.018;2023-04-26T07:55:27;99828.44;;;8.41;100.00
55679;BME280;41573;51.446;-2.018;2023-04-26T07:57:53;99832.88;;;8.41;100.00
55679;BME280;41573;51.446;-2.018;2023-04-26T08:00:19;99823.88;;;8.43;100.00
55679;BME280;41573;51.446;-2.018;2023-04-26T08:02:46;99813.47;;;8.55;100.00
55679;BME280;41573;51.446;-2.018;2023-04-26T08:05:12;99797.84;;;8.77;100.00
55679;BME280;41573;51.446;-2.018;2023-04-26T08:07:38;99778.16;;;8.94;100.00
55679;BME280;41573;51.446;-2.018;2023-04-26T08:10:04;99750.13;;;9.03;100.00
55679;BME280;41573;51.446;-2.018;2023-04-26T08:12:30;99728.66;;;9.06;100.00
55679;BME280;41573;51.446;-2.018;2023-04-26T08:14:55;99709.25;;;9.19;100.00
55679;BME280;41573;51.446;-2.018;2023-04-26T08:17:21;99692.47;;;9.31;100.00
55679;BME280;41573;51.446;-2.018;2023-04-26T08:19:46;99688.53;;;9.49;100.00
55679;BME280;41573;51.446;-2.018;2023-04-26T08:22:11;99671.69;;;9.75;100.00
55679;BME280;41573;51.446;-2.018;2023-04-26T08:24:37;99638.91;;;9.87;100.00
55679;BME280;41573;51.446;-2.018;2023-04-26T08:27:02;99631.50;;;10.04;100.00
55679;BME280;41573;51.446;-2.018;2023-04-26T08:29:27;99604.34;;;10.11;100.00
55679;BME280;41573;51.446;-2.018;2023-04-26T08:31:53;99575.81;;;10.13;100.00
55679;BME280;41573;51.446;-2.018;2023-04-26T08:34:19;99562.53;;;10.25;100.00
55679;BME280;41573;51.446;-2.018;2023-04-26T08:36:44;99543.19;;;10.23;100.00
55679;BME280;41573;51.446;-2.018;2023-04-26T08:39:10;99546.34;;;10.28;100.00
55679;BME280;41573;51.446;-2.018;2023-04-26T08:41:43;99542.38;;;10.33;100.00
55679;BME280;41573;51.446;-2.018;2023-04-26T08:44:10;99535.03;;;10.37;100.00
55679;BME280;41573;51.446;-2.018;2023-04-26T08:46:43;99691.22;;;10.37;100.00
55679;BME280;41573;51.446;-2.018;2023-04-26T08:49:38;99658.81;;;10.43;100.00
55679;BME280;41573;51.446;-2.018;2023-04-26T08:52:07;99657.47;;;10.37;100.00
55679;BME280;41573;51.446;-2.018;2023-04-26T08:54:33;99644.19;;;10.24;100.00
55679;BME280;41573;51.446;-2.018;2023-04-26T08:57:00;99646.22;;;10.21;100.00
55679;BME280;41573;51.446;-2.018;2023-04-26T08:59:29;99638.69;;;10.14;100.00
55679;BME280;41573;51.446;-2.018;2023-04-26T09:01:55;99644.81;;;10.04;100.00
55679;BME280;41573;51.446;-2.018;2023-04-26T09:04:22;99633.53;;;10.00;100.00
55679;BME280;41573;51.446;-2.018;2023-04-26T09:06:48;99627.19;;;9.90;100.00
55679;BME280;41573;51.446;-2.018;2023-04-26T09:09:17;99636.97;;;9.89;100.00
55679;BME280;41573;51.446;-2.018;2023-04-26T09:11:54;99637.31;;;9.84;100.00
55679;BME280;41573;51.446;-2.018;2023-04-26T09:14:20;99625.94;;;9.82;100.00
55679;BME280;41573;51.446;-2.018;2023-04-26T09:16:45;99632.22;;;9.81;100.00
55679;BME280;41573;51.446;-2.018;2023-04-26T09:19:11;99625.56;;;9.63;100.00
55679;BME280;41573;51.446;-2.018;2023-04-26T09:21:44;99622.69;;;9.66;100.00
55679;BME280;41573;51.446;-2.018;2023-04-26T09:24:10;99623.84;;;9.62;100.00
55679;BME280;41573;51.446;-2.018;2023-04-26T09:26:36;99615.03;;;9.61;100.00
55679;BME280;41573;51.446;-2.018;2023-04-26T09:29:13;99608.88;;;9.61;100.00
55679;BME280;41573;51.446;-2.018;2023-04-26T09:31:46;99604.53;;;9.60;100.00
55679;BME280;41573;51.446;-2.018;2023-04-26T09:34:13;99597.50;;;9.59;100.00
55679;BME280;41573;51.446;-2.018;2023-04-26T09:36:55;99590.84;;;9.77;100.00
55679;BME280;41573;51.446;-2.018;2023-04-26T09:39:37;99583.56;;;9.92;100.00
55679;BME280;41573;51.446;-2.018;2023-04-26T09:42:04;99573.94;;;10.03;100.00
55679;BME280;41573;51.446;-2.018;2023-04-26T09:44:30;99553.09;;;10.21;100.00
55679;BME280;41573;51.446;-2.018;2023-04-26T09:49:24;99528.63;;;10.40;100.00
55679;BME280;41573;51.446;-2.018;2023-04-26T09:52:04;99517.06;;;10.63;100.00
55679;BME280;41573;51.446;-2.018;2023-04-26T09:54:46;99513.69;;;10.73;100.00
55679;BME280;41573;51.446;-2.018;2023-04-26T09:57:14;99505.31;;;10.77;100.00
55679;BME280;41573;51.446;-2.018;2023-04-26T09:59:42;99494.91;;;10.74;100.00
55679;BME280;41573;51.446;-2.018;2023-04-26T10:02:27;99484.75;;;10.91;100.00
55679;BME280;41573;51.446;-2.018;2023-04-26T10:04:54;99475.56;;;10.95;100.00
55679;BME280;41573;51.446;-2.018;2023-04-26T10:07:22;99476.00;;;11.11;100.00
55679;BME280;41573;51.446;-2.018;2023-04-26T10:09:48;99474.22;;;11.00;100.00
55679;BME280;41573;51.446;-2.018;2023-04-26T10:12:15;99468.00;;;11.23;100.00
55679;BME280;41573;51.446;-2.018;2023-04-26T10:14:41;99465.59;;;11.08;100.00
55679;BME280;41573;51.446;-2.018;2023-04-26T10:17:09;99460.41;;;11.07;100.00
55679;BME280;41573;51.446;-2.018;2023-04-26T10:19:37;99453.97;;;11.09;100.00
55679;BME280;41573;51.446;-2.018;2023-04-26T10:22:20;99460.78;;;11.02;100.00
55679;BME280;41573;51.446;-2.018;2023-04-26T10:24:47;99448.16;;;11.04;100.00
55679;BME280;41573;51.446;-2.018;2023-04-26T10:27:13;99438.88;;;10.87;100.00
55679;BME280;41573;51.446;-2.018;2023-04-26T10:30:04;99444.81;;;10.79;100.00
55679;BME280;41573;51.446;-2.018;2023-04-26T10:32:31;99433.06;;;10.82;100.00
55679;BME280;41573;51.446;-2.018;2023-04-26T10:35:10;99428.59;;;10.82;100.00
55679;BME280;41573;51.446;-2.018;2023-04-26T10:37:36;99429.09;;;10.65;100.00
55679;BME280;41573;51.446;-2.018;2023-04-26T10:40:35;99418.66;;;10.84;100.00
55679;BME280;41573;51.446;-2.018;2023-04-26T10:45:33;99403.88;;;11.03;100.00
55679;BME280;41573;51.446;-2.018;2023-04-26T10:58:49;99377.72;;;11.62;100.00
55679;BME280;41573;51.446;-2.018;2023-04-26T11:01:31;99381.56;;;11.69;100.00
55679;BME280;41573;51.446;-2.018;2023-04-26T11:06:22;99366.69;;;11.87;100.00
55679;BME280;41573;51.446;-2.018;2023-04-26T11:08:49;99370.31;;;11.86;100.00
55679;BME280;41573;51.446;-2.018;2023-04-26T11:11:16;99370.84;;;11.80;100.00
55679;BME280;41573;51.446;-2.018;2023-04-26T11:13:44;99378.59;;;11.83;100.00
55679;BME280;41573;51.446;-2.018;2023-04-26T11:16:14;99378.38;;;11.75;100.00
55679;BME280;41573;51.446;-2.018;2023-04-26T11:18:43;99383.44;;;11.78;100.00
55679;BME280;41573;51.446;-2.018;2023-04-26T11:21:09;99374.53;;;11.68;100.00
55679;BME280;41573;51.446;-2.018;2023-04-26T11:23:36;99374.19;;;11.61;100.00
55679;BME280;41573;51.446;-2.018;2023-04-26T11:26:04;99375.78;;;11.64;100.00
55679;BME280;41573;51.446;-2.018;2023-04-26T11:28:30;99371.31;;;11.64;100.00
55679;BME280;41573;51.446;-2.018;2023-04-26T11:30:56;99370.25;;;11.55;100.00
55679;BME280;41573;51.446;-2.018;2023-04-26T11:33:22;99372.72;;;11.47;100.00
55679;BME280;41573;51.446;-2.018;2023-04-26T11:35:48;99374.47;;;11.26;100.00
55679;BME280;41573;51.446;-2.018;2023-04-26T11:38:14;99363.13;;;11.12;100.00
55679;BME280;41573;51.446;-2.018;2023-04-26T11:40:40;99351.25;;;11.16;100.00
55679;BME280;41573;51.446;-2.018;2023-04-26T11:43:06;99336.09;;;11.17;100.00
55679;BME280;41573;51.446;-2.018;2023-04-26T11:45:34;99330.06;;;11.15;100.00
55679;BME280;41573;51.446;-2.018;2023-04-26T11:48:01;99331.13;;;11.24;100.00
55679;BME280;41573;51.446;-2.018;2023-04-26T11:50:28;99322.47;;;11.31;100.00
55679;BME280;41573;51.446;-2.018;2023-04-26T11:52:55;99331.28;;;11.11;100.00
55679;BME280;41573;51.446;-2.018;2023-04-26T11:55:28;99341.03;;;11.00;100.00
55679;BME280;41573;51.446;-2.018;2023-04-26T11:57:56;99324.88;;;11.13;100.00
55679;BME280;41573;51.446;-2.018;2023-04-26T12:00:22;99325.31;;;11.18;100.00
55679;BME280;41573;51.446;-2.018;2023-04-26T12:02:49;99312.06;;;11.28;100.00
55679;BME280;41573;51.446;-2.018;2023-04-26T12:05:29;99308.56;;;11.28;100.00
55679;BME280;41573;51.446;-2.018;2023-04-26T12:07:55;99307.34;;;11.32;100.00
55679;BME280;41573;51.446;-2.018;2023-04-26T12:10:34;99300.78;;;11.36;100.00
55679;BME280;41573;51.446;-2.018;2023-04-26T12:13:00;99291.50;;;11.51;100.00
55679;BME280;41573;51.446;-2.018;2023-04-26T12:15:32;99299.44;;;11.63;100.00
55679;BME280;41573;51.446;-2.018;2023-04-26T12:18:05;99292.84;;;11.67;100.00
55679;BME280;41573;51.446;-2.018;2023-04-26T12:20:34;99301.44;;;11.70;100.00
55679;BME280;41573;51.446;-2.018;2023-04-26T12:23:07;99300.94;;;11.86;100.00
55679;BME280;41573;51.446;-2.018;2023-04-26T12:25:33;99304.44;;;11.98;100.00
55679;BME280;41573;51.446;-2.018;2023-04-26T12:27:59;99312.22;;;11.90;100.00
55679;BME280;41573;51.446;-2.018;2023-04-26T12:30:26;99295.56;;;11.98;100.00
55679;BME280;41573;51.446;-2.018;2023-04-26T12:32:52;99308.41;;;12.04;100.00
55679;BME280;41573;51.446;-2.018;2023-04-26T12:35:18;99308.19;;;12.17;100.00
55679;BME280;41573;51.446;-2.018;2023-04-26T12:37:43;99310.97;;;12.15;100.00
55679;BME280;41573;51.446;-2.018;2023-04-26T12:40:10;99316.09;;;12.38;100.00
55679;BME280;41573;51.446;-2.018;2023-04-26T12:42:36;99311.38;;;12.51;100.00
55679;BME280;41573;51.446;-2.018;2023-04-26T12:45:01;99318.44;;;12.62;100.00
55679;BME280;41573;51.446;-2.018;2023-04-26T12:47:26;99323.66;;;12.64;100.00
55679;BME280;41573;51.446;-2.018;2023-04-26T12:49:52;99325.88;;;12.58;100.00
55679;BME280;41573;51.446;-2.018;2023-04-26T12:52:17;99330.53;;;12.56;100.00
55679;BME280;41573;51.446;-2.018;2023-04-26T12:54:43;99315.63;;;12.64;100.00
55679;BME280;41573;51.446;-2.018;2023-04-26T12:57:09;99316.78;;;12.71;100.00
55679;BME280;41573;51.446;-2.018;2023-04-26T12:59:34;99328.19;;;12.42;100.00
55679;BME280;41573;51.446;-2.018;2023-04-26T13:02:00;99324.78;;;12.30;100.00
55679;BME280;41573;51.446;-2.018;2023-04-26T13:04:26;99320.03;;;12.34;100.00
55679;BME280;41573;51.446;-2.018;2023-04-26T13:06:51;99326.81;;;12.48;100.00
55679;BME280;41573;51.446;-2.018;2023-04-26T13:09:16;99328.69;;;12.57;100.00
55679;BME280;41573;51.446;-2.018;2023-04-26T13:11:42;99324.03;;;12.59;100.00
55679;BME280;41573;51.446;-2.018;2023-04-26T13:14:07;99321.56;;;12.77;100.00
55679;BME280;41573;51.446;-2.018;2023-04-26T13:16:33;99341.84;;;12.89;100.00
55679;BME280;41573;51.446;-2.018;2023-04-26T13:18:58;99363.91;;;12.91;100.00
55679;BME280;41573;51.446;-2.018;2023-04-26T13:21:24;99361.56;;;12.98;100.00
55679;BME280;41573;51.446;-2.018;2023-04-26T13:23:49;99384.59;;;12.89;100.00
55679;BME280;41573;51.446;-2.018;2023-04-26T13:26:15;99392.78;;;12.98;100.00
55679;BME280;41573;51.446;-2.018;2023-04-26T13:28:42;99407.63;;;12.90;100.00
55679;BME280;41573;51.446;-2.018;2023-04-26T13:31:07;99408.09;;;12.96;100.00
55679;BME280;41573;51.446;-2.018;2023-04-26T13:33:33;99416.94;;;12.96;100.00
55679;BME280;41573;51.446;-2.018;2023-04-26T13:35:58;99438.03;;;12.89;100.00
55679;BME280;41573;51.446;-2.018;2023-04-26T13:38:24;99437.44;;;12.86;100.00
55679;BME280;41573;51.446;-2.018;2023-04-26T13:40:50;99448.09;;;12.76;100.00
55679;BME280;41573;51.446;-2.018;2023-04-26T13:43:16;99459.28;;;12.60;100.00
55679;BME280;41573;51.446;-2.018;2023-04-26T13:45:41;99453.63;;;12.53;100.00
55679;BME280;41573;51.446;-2.018;2023-04-26T13:48:06;99450.31;;;12.40;100.00
55679;BME280;41573;51.446;-2.018;2023-04-26T13:50:32;99433.53;;;12.28;100.00
55679;BME280;41573;51.446;-2.018;2023-04-26T13:52:59;99433.22;;;12.21;100.00
55679;BME280;41573;51.446;-2.018;2023-04-26T13:55:24;99431.09;;;12.15;100.00
55679;BME280;41573;51.446;-2.018;2023-04-26T13:57:50;99420.19;;;12.07;100.00
55679;BME280;41573;51.446;-2.018;2023-04-26T14:00:15;99421.63;;;12.11;100.00
55679;BME280;41573;51.446;-2.018;2023-04-26T14:02:41;99414.88;;;12.07;100.00
55679;BME280;41573;51.446;-2.018;2023-04-26T14:05:07;99429.66;;;12.11;100.00
55679;BME280;41573;51.446;-2.018;2023-04-26T14:07:33;99434.59;;;12.16;100.00
55679;BME280;41573;51.446;-2.018;2023-04-26T14:09:58;99414.06;;;12.16;100.00
55679;BME280;41573;51.446;-2.018;2023-04-26T14:12:24;99425.00;;;12.13;100.00
55679;BME280;41573;51.446;-2.018;2023-04-26T14:14:49;99445.41;;;12.14;100.00
55679;BME280;41573;51.446;-2.018;2023-04-26T14:17:15;99459.13;;;12.10;100.00
55679;BME280;41573;51.446;-2.018;2023-04-26T14:19:40;99470.16;;;12.05;100.00
55679;BME280;41573;51.446;-2.018;2023-04-26T14:22:06;99468.75;;;12.01;100.00
55679;BME280;41573;51.446;-2.018;2023-04-26T14:24:34;99469.00;;;11.98;100.00
55679;BME280;41573;51.446;-2.018;2023-04-26T14:27:00;99477.25;;;11.95;100.00
55679;BME280;41573;51.446;-2.018;2023-04-26T14:29:25;99504.91;;;11.94;100.00
55679;BME280;41573;51.446;-2.018;2023-04-26T14:31:51;99512.19;;;11.92;100.00
55679;BME280;41573;51.446;-2.018;2023-04-26T14:34:16;99507.09;;;11.88;100.00
55679;BME280;41573;51.446;-2.018;2023-04-26T14:36:42;99518.59;;;11.89;100.00
55679;BME280;41573;51.446;-2.018;2023-04-26T14:39:07;99541.03;;;11.86;100.00
55679;BME280;41573;51.446;-2.018;2023-04-26T14:41:33;99554.78;;;11.82;100.00
55679;BME280;41573;51.446;-2.018;2023-04-26T14:43:59;99562.66;;;11.83;100.00
55679;BME280;41573;51.446;-2.018;2023-04-26T14:46:24;99563.59;;;11.82;100.00
55679;BME280;41573;51.446;-2.018;2023-04-26T14:48:50;99579.25;;;11.87;100.00
55679;BME280;41573;51.446;-2.018;2023-04-26T14:51:15;99599.25;;;11.93;100.00
55679;BME280;41573;51.446;-2.018;2023-04-26T14:53:40;99599.03;;;11.96;100.00
55679;BME280;41573;51.446;-2.018;2023-04-26T14:56:06;99611.16;;;12.00;100.00
55679;BME280;41573;51.446;-2.018;2023-04-26T14:58:32;99637.31;;;12.06;100.00
55679;BME280;41573;51.446;-2.018;2023-04-26T15:00:58;99689.47;;;12.10;100.00
55679;BME280;41573;51.446;-2.018;2023-04-26T15:03:23;99712.88;;;12.18;100.00
55679;BME280;41573;51.446;-2.018;2023-04-26T15:05:48;99857.75;;;12.20;100.00
55679;BME280;41573;51.446;-2.018;2023-04-26T15:08:14;99922.41;;;12.23;100.00
55679;BME280;41573;51.446;-2.018;2023-04-26T15:10:40;99932.88;;;12.27;100.00
55679;BME280;41573;51.446;-2.018;2023-04-26T15:13:05;99927.06;;;12.33;100.00
55679;BME280;41573;51.446;-2.018;2023-04-26T15:15:31;99914.16;;;12.38;100.00
55679;BME280;41573;51.446;-2.018;2023-04-26T15:17:56;99966.16;;;12.45;100.00
55679;BME280;41573;51.446;-2.018;2023-04-26T15:20:22;100027.34;;;12.48;100.00
55679;BME280;41573;51.446;-2.018;2023-04-26T15:22:48;100090.97;;;12.54;100.00
55679;BME280;41573;51.446;-2.018;2023-04-26T15:25:14;100125.06;;;12.51;100.00
55679;BME280;41573;51.446;-2.018;2023-04-26T15:27:39;100140.34;;;12.49;100.00
55679;BME280;41573;51.446;-2.018;2023-04-26T15:30:05;100144.72;;;12.50;100.00
55679;BME280;41573;51.446;-2.018;2023-04-26T15:32:33;100133.81;;;12.53;100.00
55679;BME280;41573;51.446;-2.018;2023-04-26T15:34:58;100133.69;;;12.54;100.00
55679;BME280;41573;51.446;-2.018;2023-04-26T15:37:23;100138.78;;;12.57;100.00
55679;BME280;41573;51.446;-2.018;2023-04-26T15:39:49;100156.53;;;12.58;100.00
55679;BME280;41573;51.446;-2.018;2023-04-26T15:42:15;100146.44;;;12.51;100.00
55679;BME280;41573;51.446;-2.018;2023-04-26T15:44:40;100156.84;;;12.43;100.00
55679;BME280;41573;51.446;-2.018;2023-04-26T15:47:06;100168.13;;;12.46;100.00
55679;BME280;41573;51.446;-2.018;2023-04-26T15:49:31;100191.03;;;12.37;100.00
55679;BME280;41573;51.446;-2.018;2023-04-26T15:51:57;100228.59;;;12.47;100.00
55679;BME280;41573;51.446;-2.018;2023-04-26T15:54:22;100255.84;;;12.52;100.00
55679;BME280;41573;51.446;-2.018;2023-04-26T15:56:48;100268.72;;;12.58;100.00
55679;BME280;41573;51.446;-2.018;2023-04-26T15:59:13;100269.44;;;12.61;100.00
55679;BME280;41573;51.446;-2.018;2023-04-26T16:01:39;100273.38;;;12.68;100.00
55679;BME280;41573;51.446;-2.018;2023-04-26T16:04:05;100282.16;;;12.70;100.00
55679;BME280;41573;51.446;-2.018;2023-04-26T16:06:30;100280.31;;;12.70;100.00
55679;BME280;41573;51.446;-2.018;2023-04-26T16:08:57;100287.91;;;12.76;100.00
55679;BME280;41573;51.446;-2.018;2023-04-26T16:11:23;100288.28;;;12.83;100.00
55679;BME280;41573;51.446;-2.018;2023-04-26T16:13:50;100283.41;;;12.77;100.00
55679;BME280;41573;51.446;-2.018;2023-04-26T16:16:17;100286.13;;;12.88;100.00
55679;BME280;41573;51.446;-2.018;2023-04-26T16:18:42;100326.22;;;12.88;100.00
55679;BME280;41573;51.446;-2.018;2023-04-26T16:21:08;100345.88;;;12.87;100.00
55679;BME280;41573;51.446;-2.018;2023-04-26T16:23:35;100373.47;;;12.88;100.00
55679;BME280;41573;51.446;-2.018;2023-04-26T16:26:01;100378.06;;;12.86;100.00
55679;BME280;41573;51.446;-2.018;2023-04-26T16:28:26;100376.25;;;12.86;100.00
55679;BME280;41573;51.446;-2.018;2023-04-26T16:30:52;100402.22;;;12.84;100.00
55679;BME280;41573;51.446;-2.018;2023-04-26T16:33:17;100418.25;;;12.84;100.00
55679;BME280;41573;51.446;-2.018;2023-04-26T16:35:42;100416.88;;;12.79;100.00
55679;BME280;41573;51.446;-2.018;2023-04-26T16:38:08;100397.09;;;12.81;100.00
55679;BME280;41573;51.446;-2.018;2023-04-26T16:40:33;100384.22;;;12.75;100.00
55679;BME280;41573;51.446;-2.018;2023-04-26T16:42:59;100382.31;;;12.64;100.00
55679;BME280;41573;51.446;-2.018;2023-04-26T16:45:25;100382.41;;;12.63;100.00
55679;BME280;41573;51.446;-2.018;2023-04-26T16:47:50;100381.56;;;12.62;100.00
55679;BME280;41573;51.446;-2.018;2023-04-26T16:50:15;100384.13;;;12.64;100.00
55679;BME280;41573;51.446;-2.018;2023-04-26T16:52:41;100415.19;;;12.65;100.00
55679;BME280;41573;51.446;-2.018;2023-04-26T16:55:07;100426.53;;;12.68;100.00
55679;BME280;41573;51.446;-2.018;2023-04-26T16:57:33;100430.94;;;12.56;100.00